sensor_id;sensor_type;location;lat;lon;timestamp;P1;durP1;ratioP1;P2;durP2;ratioP2
77888;SDS011;67082;41.704;44.768;2023-08-20T00:01:24;18.35;;;3.47;;
77888;SDS011;67082;41.704;44.768;2023-08-20T00:03:53;8.00;;;3.70;;
77888;SDS011;67082;41.704;44.768;2023-08-20T00:06:23;8.43;;;3.40;;
77888;SDS011;67082;41.704;44.768;2023-08-20T00:08:52;9.77;;;3.45;;
77888;SDS011;67082;41.704;44.768;2023-08-20T00:11:20;16.02;;;3.85;;
77888;SDS011;67082;41.704;44.768;2023-08-20T00:13:48;9.10;;;3.30;;
77888;SDS011;67082;41.704;44.768;2023-08-20T00:16:16;10.93;;;3.70;;
77888;SDS011;67082;41.704;44.768;2023-08-20T00:18:45;11.15;;;3.72;;
77888;SDS011;67082;41.704;44.768;2023-08-20T00:21:13;12.63;;;3.83;;
77888;SDS011;67082;41.704;44.768;2023-08-20T00:23:42;8.60;;;3.53;;
77888;SDS011;67082;41.704;44.768;2023-08-20T00:26:10;6.30;;;3.05;;
77888;SDS011;67082;41.704;44.768;2023-08-20T00:28:40;6.72;;;3.45;;
77888;SDS011;67082;41.704;44.768;2023-08-20T00:31:08;9.60;;;3.22;;
77888;SDS011;67082;41.704;44.768;2023-08-20T00:33:36;14.63;;;3.75;;
77888;SDS011;67082;41.704;44.768;2023-08-20T00:36:05;14.80;;;3.78;;
77888;SDS011;67082;41.704;44.768;2023-08-20T00:38:33;15.43;;;3.45;;
77888;SDS011;67082;41.704;44.768;2023-08-20T00:41:01;13.55;;;3.88;;
77888;SDS011;67082;41.704;44.768;2023-08-20T00:43:29;8.45;;;3.10;;
77888;SDS011;67082;41.704;44.768;2023-08-20T00:45:58;9.30;;;3.28;;
77888;SDS011;67082;41.704;44.768;2023-08-20T00:48:27;11.68;;;3.55;;
77888;SDS011;67082;41.704;44.768;2023-08-20T00:50:55;11.05;;;3.55;;
77888;SDS011;67082;41.704;44.768;2023-08-20T00:53:23;12.40;;;3.22;;
77888;SDS011;67082;41.704;44.768;2023-08-20T00:55:55;6.18;;;3.40;;
77888;SDS011;67082;41.704;44.768;2023-08-20T00:58:23;12.02;;;3.40;;
77888;SDS011;67082;41.704;44.768;2023-08-20T01:00:51;11.98;;;3.20;;
77888;SDS011;67082;41.704;44.768;2023-08-20T01:03:20;10.90;;;3.83;;
77888;SDS011;67082;41.704;44.768;2023-08-20T01:05:50;13.45;;;3.65;;
77888;SDS011;67082;41.704;44.768;2023-08-20T01:08:32;10.25;;;3.35;;
77888;SDS011;67082;41.704;44.768;2023-08-20T01:11:15;12.98;;;3.42;;
77888;SDS011;67082;41.704;44.768;2023-08-20T01:13:47;7.03;;;3.30;;
77888;SDS011;67082;41.704;44.768;2023-08-20T01:16:14;11.57;;;3.40;;
77888;SDS011;67082;41.704;44.768;2023-08-20T01:18:43;10.90;;;3.17;;
77888;SDS011;67082;41.704;44.768;2023-08-20T01:21:15;11.30;;;3.20;;
77888;SDS011;67082;41.704;44.768;2023-08-20T01:24:01;11.98;;;3.30;;
77888;SDS011;67082;41.704;44.768;2023-08-20T01:29:25;9.68;;;3.42;;
77888;SDS011;67082;41.704;44.768;2023-08-20T01:31:54;7.00;;;3.28;;
77888;SDS011;67082;41.704;44.768;2023-08-20T01:34:23;8.23;;;3.42;;
77888;SDS011;67082;41.704;44.768;2023-08-20T01:36:51;10.45;;;3.50;;
77888;SDS011;67082;41.704;44.768;2023-08-20T01:39:19;7.13;;;3.40;;
77888;SDS011;67082;41.704;44.768;2023-08-20T01:41:47;8.48;;;3.70;;
77888;SDS011;67082;41.704;44.768;2023-08-20T01:44:15;7.60;;;3.25;;
77888;SDS011;67082;41.704;44.768;2023-08-20T01:46:43;9.15;;;3.75;;
77888;SDS011;67082;41.704;44.768;2023-08-20T01:49:12;8.70;;;3.55;;
77888;SDS011;67082;41.704;44.768;2023-08-20T01:51:40;6.00;;;3.40;;
77888;SDS011;67082;41.704;44.768;2023-08-20T01:54:08;11.40;;;3.40;;
77888;SDS011;67082;41.704;44.768;2023-08-20T01:56:36;10.93;;;3.67;;
77888;SDS011;67082;41.704;44.768;2023-08-20T01:59:04;10.00;;;3.35;;
77888;SDS011;67082;41.704;44.768;2023-08-20T02:01:32;9.15;;;3.63;;
77888;SDS011;67082;41.704;44.768;2023-08-20T02:04:00;9.57;;;3.65;;
77888;SDS011;67082;41.704;44.768;2023-08-20T02:06:28;9.85;;;3.30;;
77888;SDS011;67082;41.704;44.768;2023-08-20T02:08:56;5.70;;;3.00;;
77888;SDS011;67082;41.704;44.768;2023-08-20T02:11:25;6.82;;;2.95;;
77888;SDS011;67082;41.704;44.768;2023-08-20T02:13:53;12.55;;;3.83;;
77888;SDS011;67082;41.704;44.768;2023-08-20T02:16:21;8.27;;;3.30;;
77888;SDS011;67082;41.704;44.768;2023-08-20T02:18:50;9.68;;;3.55;;
77888;SDS011;67082;41.704;44.768;2023-08-20T02:21:18;11.88;;;3.92;;
77888;SDS011;67082;41.704;44.768;2023-08-20T02:23:46;8.60;;;3.33;;
77888;SDS011;67082;41.704;44.768;2023-08-20T02:26:14;12.85;;;3.92;;
77888;SDS011;67082;41.704;44.768;2023-08-20T02:28:42;12.02;;;3.58;;
77888;SDS011;67082;41.704;44.768;2023-08-20T02:31:10;9.38;;;3.55;;
77888;SDS011;67082;41.704;44.768;2023-08-20T02:33:39;10.77;;;3.85;;
77888;SDS011;67082;41.704;44.768;2023-08-20T02:36:07;9.77;;;3.75;;
77888;SDS011;67082;41.704;44.768;2023-08-20T02:38:35;12.52;;;3.72;;
77888;SDS011;67082;41.704;44.768;2023-08-20T02:41:03;11.25;;;3.42;;
77888;SDS011;67082;41.704;44.768;2023-08-20T02:43:32;10.27;;;3.88;;
77888;SDS011;67082;41.704;44.768;2023-08-20T02:46:00;14.45;;;3.70;;
77888;SDS011;67082;41.704;44.768;2023-08-20T02:48:29;12.25;;;3.60;;
77888;SDS011;67082;41.704;44.768;2023-08-20T02:50:57;8.63;;;3.08;;
77888;SDS011;67082;41.704;44.768;2023-08-20T02:53:25;11.77;;;3.28;;
77888;SDS011;67082;41.704;44.768;2023-08-20T02:55:53;15.00;;;3.47;;
77888;SDS011;67082;41.704;44.768;2023-08-20T02:58:22;9.43;;;3.30;;
77888;SDS011;67082;41.704;44.768;2023-08-20T03:00:50;13.45;;;3.47;;
77888;SDS011;67082;41.704;44.768;2023-08-20T03:03:19;13.55;;;3.65;;
77888;SDS011;67082;41.704;44.768;2023-08-20T03:05:47;9.60;;;3.10;;
77888;SDS011;67082;41.704;44.768;2023-08-20T03:08:15;18.10;;;3.50;;
77888;SDS011;67082;41.704;44.768;2023-08-20T03:10:43;13.77;;;3.70;;
77888;SDS011;67082;41.704;44.768;2023-08-20T03:13:11;15.45;;;3.15;;
77888;SDS011;67082;41.704;44.768;2023-08-20T03:15:39;10.63;;;3.60;;
77888;SDS011;67082;41.704;44.768;2023-08-20T03:18:08;11.88;;;3.60;;
77888;SDS011;67082;41.704;44.768;2023-08-20T03:20:36;12.85;;;3.55;;
77888;SDS011;67082;41.704;44.768;2023-08-20T03:23:04;19.40;;;3.90;;
77888;SDS011;67082;41.704;44.768;2023-08-20T03:25:32;10.30;;;3.22;;
77888;SDS011;67082;41.704;44.768;2023-08-20T03:28:01;10.70;;;3.92;;
77888;SDS011;67082;41.704;44.768;2023-08-20T03:30:29;10.93;;;3.70;;
77888;SDS011;67082;41.704;44.768;2023-08-20T03:32:57;13.45;;;3.28;;
77888;SDS011;67082;41.704;44.768;2023-08-20T03:35:25;11.93;;;3.50;;
77888;SDS011;67082;41.704;44.768;2023-08-20T03:37:53;9.82;;;3.10;;
77888;SDS011;67082;41.704;44.768;2023-08-20T03:40:22;11.57;;;3.35;;
77888;SDS011;67082;41.704;44.768;2023-08-20T03:42:50;13.07;;;3.85;;
77888;SDS011;67082;41.704;44.768;2023-08-20T03:45:18;12.05;;;3.35;;
77888;SDS011;67082;41.704;44.768;2023-08-20T03:47:46;11.82;;;3.53;;
77888;SDS011;67082;41.704;44.768;2023-08-20T03:50:16;15.80;;;3.50;;
77888;SDS011;67082;41.704;44.768;2023-08-20T03:52:45;12.75;;;3.58;;
77888;SDS011;67082;41.704;44.768;2023-08-20T03:55:13;7.50;;;3.20;;
77888;SDS011;67082;41.704;44.768;2023-08-20T03:57:41;16.17;;;3.90;;
77888;SDS011;67082;41.704;44.768;2023-08-20T04:00:09;11.27;;;3.72;;
77888;SDS011;67082;41.704;44.768;2023-08-20T04:02:42;22.63;;;3.78;;
77888;SDS011;67082;41.704;44.768;2023-08-20T04:05:11;19.58;;;3.83;;
77888;SDS011;67082;41.704;44.768;2023-08-20T04:07:39;13.27;;;3.60;;
77888;SDS011;67082;41.704;44.768;2023-08-20T04:10:07;18.25;;;3.70;;
77888;SDS011;67082;41.704;44.768;2023-08-20T04:12:36;16.83;;;3.78;;
77888;SDS011;67082;41.704;44.768;2023-08-20T04:15:04;14.40;;;3.60;;
77888;SDS011;67082;41.704;44.768;2023-08-20T04:17:33;11.13;;;3.45;;
77888;SDS011;67082;41.704;44.768;2023-08-20T04:20:01;8.32;;;3.70;;
77888;SDS011;67082;41.704;44.768;2023-08-20T04:22:32;10.68;;;3.63;;
77888;SDS011;67082;41.704;44.768;2023-08-20T04:25:00;12.48;;;3.35;;
77888;SDS011;67082;41.704;44.768;2023-08-20T04:27:33;9.57;;;3.85;;
77888;SDS011;67082;41.704;44.768;2023-08-20T04:30:02;10.23;;;3.20;;
77888;SDS011;67082;41.704;44.768;2023-08-20T04:32:30;11.70;;;3.70;;
77888;SDS011;67082;41.704;44.768;2023-08-20T04:34:58;10.98;;;3.38;;
77888;SDS011;67082;41.704;44.768;2023-08-20T04:37:28;13.10;;;4.22;;
77888;SDS011;67082;41.704;44.768;2023-08-20T04:39:57;12.27;;;3.33;;
77888;SDS011;67082;41.704;44.768;2023-08-20T04:42:25;5.65;;;2.95;;
77888;SDS011;67082;41.704;44.768;2023-08-20T04:44:55;11.35;;;3.60;;
77888;SDS011;67082;41.704;44.768;2023-08-20T04:47:25;9.35;;;3.53;;
77888;SDS011;67082;41.704;44.768;2023-08-20T04:49:53;8.15;;;3.40;;
77888;SDS011;67082;41.704;44.768;2023-08-20T04:52:23;7.53;;;3.38;;
77888;SDS011;67082;41.704;44.768;2023-08-20T04:54:51;11.48;;;3.72;;
77888;SDS011;67082;41.704;44.768;2023-08-20T04:57:21;8.95;;;3.35;;
77888;SDS011;67082;41.704;44.768;2023-08-20T04:59:50;11.63;;;3.63;;
77888;SDS011;67082;41.704;44.768;2023-08-20T05:02:37;7.82;;;3.40;;
77888;SDS011;67082;41.704;44.768;2023-08-20T05:05:06;10.00;;;3.30;;
77888;SDS011;67082;41.704;44.768;2023-08-20T05:07:34;9.20;;;3.22;;
77888;SDS011;67082;41.704;44.768;2023-08-20T05:10:02;12.63;;;3.70;;
77888;SDS011;67082;41.704;44.768;2023-08-20T05:12:31;10.07;;;3.30;;
77888;SDS011;67082;41.704;44.768;2023-08-20T05:15:00;5.13;;;3.05;;
77888;SDS011;67082;41.704;44.768;2023-08-20T05:17:29;11.05;;;3.00;;
77888;SDS011;67082;41.704;44.768;2023-08-20T05:19:57;6.03;;;2.92;;
77888;SDS011;67082;41.704;44.768;2023-08-20T05:22:26;15.68;;;3.45;;
77888;SDS011;67082;41.704;44.768;2023-08-20T05:24:54;7.53;;;3.25;;
77888;SDS011;67082;41.704;44.768;2023-08-20T05:27:22;11.35;;;3.10;;
77888;SDS011;67082;41.704;44.768;2023-08-20T05:29:50;7.32;;;2.90;;
77888;SDS011;67082;41.704;44.768;2023-08-20T05:32:20;9.68;;;2.80;;
77888;SDS011;67082;41.704;44.768;2023-08-20T05:34:48;11.85;;;3.55;;
77888;SDS011;67082;41.704;44.768;2023-08-20T05:37:16;9.60;;;2.92;;
77888;SDS011;67082;41.704;44.768;2023-08-20T05:39:44;7.95;;;2.97;;
77888;SDS011;67082;41.704;44.768;2023-08-20T05:42:13;9.27;;;3.15;;
77888;SDS011;67082;41.704;44.768;2023-08-20T05:44:47;12.15;;;3.20;;
77888;SDS011;67082;41.704;44.768;2023-08-20T05:47:20;6.53;;;2.95;;
77888;SDS011;67082;41.704;44.768;2023-08-20T05:49:48;7.38;;;3.25;;
77888;SDS011;67082;41.704;44.768;2023-08-20T05:52:17;9.43;;;2.75;;
77888;SDS011;67082;41.704;44.768;2023-08-20T05:54:45;8.45;;;3.00;;
77888;SDS011;67082;41.704;44.768;2023-08-20T05:57:14;10.45;;;2.80;;
77888;SDS011;67082;41.704;44.768;2023-08-20T05:59:43;8.43;;;2.90;;
77888;SDS011;67082;41.704;44.768;2023-08-20T06:02:15;7.75;;;2.72;;
77888;SDS011;67082;41.704;44.768;2023-08-20T06:04:45;11.63;;;2.88;;
77888;SDS011;67082;41.704;44.768;2023-08-20T06:07:13;13.35;;;2.88;;
77888;SDS011;67082;41.704;44.768;2023-08-20T06:09:41;6.28;;;2.47;;
77888;SDS011;67082;41.704;44.768;2023-08-20T06:12:09;6.53;;;2.85;;
77888;SDS011;67082;41.704;44.768;2023-08-20T06:14:37;7.13;;;2.78;;
77888;SDS011;67082;41.704;44.768;2023-08-20T06:17:06;7.78;;;2.65;;
77888;SDS011;67082;41.704;44.768;2023-08-20T06:19:34;9.80;;;3.03;;
77888;SDS011;67082;41.704;44.768;2023-08-20T06:22:03;4.10;;;2.40;;
77888;SDS011;67082;41.704;44.768;2023-08-20T06:24:31;8.25;;;2.95;;
77888;SDS011;67082;41.704;44.768;2023-08-20T06:27:00;6.63;;;2.60;;
77888;SDS011;67082;41.704;44.768;2023-08-20T06:29:28;6.50;;;2.60;;
77888;SDS011;67082;41.704;44.768;2023-08-20T06:31:56;5.90;;;2.83;;
77888;SDS011;67082;41.704;44.768;2023-08-20T06:34:25;8.32;;;3.00;;
77888;SDS011;67082;41.704;44.768;2023-08-20T06:36:53;6.68;;;2.60;;
77888;SDS011;67082;41.704;44.768;2023-08-20T06:39:21;5.32;;;2.38;;
77888;SDS011;67082;41.704;44.768;2023-08-20T06:41:49;5.78;;;2.60;;
77888;SDS011;67082;41.704;44.768;2023-08-20T06:44:20;5.93;;;2.63;;
77888;SDS011;67082;41.704;44.768;2023-08-20T06:46:48;9.63;;;3.05;;
77888;SDS011;67082;41.704;44.768;2023-08-20T06:49:16;9.25;;;2.47;;
77888;SDS011;67082;41.704;44.768;2023-08-20T06:51:45;5.95;;;2.72;;
77888;SDS011;67082;41.704;44.768;2023-08-20T06:54:14;6.65;;;2.65;;
77888;SDS011;67082;41.704;44.768;2023-08-20T06:56:44;6.28;;;2.40;;
77888;SDS011;67082;41.704;44.768;2023-08-20T06:59:15;6.75;;;2.80;;
77888;SDS011;67082;41.704;44.768;2023-08-20T07:01:45;7.03;;;2.60;;
77888;SDS011;67082;41.704;44.768;2023-08-20T07:04:13;5.15;;;2.70;;
77888;SDS011;67082;41.704;44.768;2023-08-20T07:06:41;6.40;;;2.50;;
77888;SDS011;67082;41.704;44.768;2023-08-20T07:09:09;3.78;;;2.30;;
77888;SDS011;67082;41.704;44.768;2023-08-20T07:11:38;8.02;;;2.50;;
77888;SDS011;67082;41.704;44.768;2023-08-20T07:14:06;7.60;;;2.63;;
77888;SDS011;67082;41.704;44.768;2023-08-20T07:16:36;9.30;;;2.70;;
77888;SDS011;67082;41.704;44.768;2023-08-20T07:19:04;6.70;;;2.90;;
77888;SDS011;67082;41.704;44.768;2023-08-20T07:21:33;9.40;;;2.72;;
77888;SDS011;67082;41.704;44.768;2023-08-20T07:24:00;4.13;;;2.75;;
77888;SDS011;67082;41.704;44.768;2023-08-20T07:26:29;4.90;;;2.80;;
77888;SDS011;67082;41.704;44.768;2023-08-20T07:28:57;8.27;;;3.08;;
77888;SDS011;67082;41.704;44.768;2023-08-20T07:31:26;9.75;;;3.30;;
77888;SDS011;67082;41.704;44.768;2023-08-20T07:33:55;6.68;;;3.25;;
77888;SDS011;67082;41.704;44.768;2023-08-20T07:36:31;5.03;;;2.92;;
77888;SDS011;67082;41.704;44.768;2023-08-20T07:38:59;7.43;;;3.40;;
77888;SDS011;67082;41.704;44.768;2023-08-20T07:41:29;6.53;;;3.30;;
77888;SDS011;67082;41.704;44.768;2023-08-20T07:43:58;10.35;;;3.25;;
77888;SDS011;67082;41.704;44.768;2023-08-20T07:46:26;11.27;;;3.20;;
77888;SDS011;67082;41.704;44.768;2023-08-20T07:48:54;7.18;;;3.00;;
77888;SDS011;67082;41.704;44.768;2023-08-20T07:51:22;5.22;;;3.00;;
77888;SDS011;67082;41.704;44.768;2023-08-20T07:53:50;5.55;;;2.75;;
77888;SDS011;67082;41.704;44.768;2023-08-20T07:56:19;5.45;;;2.95;;
77888;SDS011;67082;41.704;44.768;2023-08-20T07:58:46;6.93;;;2.90;;
77888;SDS011;67082;41.704;44.768;2023-08-20T08:01:15;5.97;;;3.10;;
77888;SDS011;67082;41.704;44.768;2023-08-20T08:03:44;7.20;;;3.28;;
77888;SDS011;67082;41.704;44.768;2023-08-20T08:06:13;6.60;;;2.90;;
77888;SDS011;67082;41.704;44.768;2023-08-20T08:08:42;7.60;;;2.80;;
77888;SDS011;67082;41.704;44.768;2023-08-20T08:11:14;5.10;;;2.83;;
77888;SDS011;67082;41.704;44.768;2023-08-20T08:13:43;6.82;;;2.63;;
77888;SDS011;67082;41.704;44.768;2023-08-20T08:16:11;6.35;;;3.00;;
77888;SDS011;67082;41.704;44.768;2023-08-20T08:18:39;6.35;;;3.13;;
77888;SDS011;67082;41.704;44.768;2023-08-20T08:21:08;4.63;;;2.95;;
77888;SDS011;67082;41.704;44.768;2023-08-20T08:23:36;5.10;;;2.90;;
77888;SDS011;67082;41.704;44.768;2023-08-20T08:26:04;7.25;;;2.70;;
77888;SDS011;67082;41.704;44.768;2023-08-20T08:28:32;10.00;;;3.60;;
77888;SDS011;67082;41.704;44.768;2023-08-20T08:31:01;8.45;;;2.80;;
77888;SDS011;67082;41.704;44.768;2023-08-20T08:33:33;4.35;;;2.92;;
77888;SDS011;67082;41.704;44.768;2023-08-20T08:36:01;5.72;;;2.70;;
77888;SDS011;67082;41.704;44.768;2023-08-20T08:38:30;6.40;;;2.90;;
77888;SDS011;67082;41.704;44.768;2023-08-20T08:40:58;4.57;;;2.92;;
77888;SDS011;67082;41.704;44.768;2023-08-20T08:43:28;10.20;;;2.95;;
77888;SDS011;67082;41.704;44.768;2023-08-20T08:46:16;4.80;;;2.58;;
77888;SDS011;67082;41.704;44.768;2023-08-20T08:48:47;6.90;;;2.50;;
77888;SDS011;67082;41.704;44.768;2023-08-20T08:51:16;8.15;;;2.45;;
77888;SDS011;67082;41.704;44.768;2023-08-20T08:53:44;5.45;;;2.47;;
77888;SDS011;67082;41.704;44.768;2023-08-20T08:56:14;11.48;;;3.13;;
77888;SDS011;67082;41.704;44.768;2023-08-20T08:58:42;8.73;;;3.00;;
77888;SDS011;67082;41.704;44.768;2023-08-20T09:01:11;11.30;;;3.35;;
77888;SDS011;67082;41.704;44.768;2023-08-20T09:03:39;6.15;;;2.65;;
77888;SDS011;67082;41.704;44.768;2023-08-20T09:06:08;6.82;;;2.88;;
77888;SDS011;67082;41.704;44.768;2023-08-20T09:08:37;6.78;;;2.92;;
77888;SDS011;67082;41.704;44.768;2023-08-20T09:11:06;8.90;;;3.00;;
77888;SDS011;67082;41.704;44.768;2023-08-20T09:13:34;8.25;;;3.03;;
77888;SDS011;67082;41.704;44.768;2023-08-20T09:16:05;5.47;;;2.50;;
77888;SDS011;67082;41.704;44.768;2023-08-20T09:18:37;8.15;;;2.88;;
77888;SDS011;67082;41.704;44.768;2023-08-20T09:21:08;8.10;;;2.78;;
77888;SDS011;67082;41.704;44.768;2023-08-20T09:23:37;6.25;;;2.60;;
77888;SDS011;67082;41.704;44.768;2023-08-20T09:26:07;10.35;;;2.92;;
77888;SDS011;67082;41.704;44.768;2023-08-20T09:28:41;8.05;;;2.53;;
77888;SDS011;67082;41.704;44.768;2023-08-20T09:31:11;6.32;;;2.60;;
77888;SDS011;67082;41.704;44.768;2023-08-20T09:33:50;6.68;;;2.55;;
77888;SDS011;67082;41.704;44.768;2023-08-20T09:36:28;5.25;;;2.30;;
77888;SDS011;67082;41.704;44.768;2023-08-20T09:39:01;8.82;;;2.58;;
77888;SDS011;67082;41.704;44.768;2023-08-20T09:41:30;6.38;;;2.40;;
77888;SDS011;67082;41.704;44.768;2023-08-20T09:43:59;9.95;;;2.80;;
77888;SDS011;67082;41.704;44.768;2023-08-20T09:46:29;6.47;;;2.53;;
77888;SDS011;67082;41.704;44.768;2023-08-20T09:49:00;6.45;;;2.83;;
77888;SDS011;67082;41.704;44.768;2023-08-20T09:51:30;7.07;;;2.55;;
77888;SDS011;67082;41.704;44.768;2023-08-20T09:54:13;7.88;;;2.67;;
77888;SDS011;67082;41.704;44.768;2023-08-20T09:57:01;9.00;;;3.08;;
77888;SDS011;67082;41.704;44.768;2023-08-20T09:59:35;8.82;;;3.00;;
77888;SDS011;67082;41.704;44.768;2023-08-20T10:02:03;10.57;;;3.03;;
77888;SDS011;67082;41.704;44.768;2023-08-20T10:04:31;7.55;;;3.00;;
77888;SDS011;67082;41.704;44.768;2023-08-20T10:07:00;7.80;;;3.00;;
77888;SDS011;67082;41.704;44.768;2023-08-20T10:09:30;10.77;;;2.70;;
77888;SDS011;67082;41.704;44.768;2023-08-20T10:12:00;8.70;;;2.58;;
77888;SDS011;67082;41.704;44.768;2023-08-20T10:14:29;6.93;;;3.00;;
77888;SDS011;67082;41.704;44.768;2023-08-20T10:16:57;6.35;;;2.30;;
77888;SDS011;67082;41.704;44.768;2023-08-20T10:19:25;7.07;;;3.17;;
77888;SDS011;67082;41.704;44.768;2023-08-20T10:21:53;9.95;;;3.67;;
77888;SDS011;67082;41.704;44.768;2023-08-20T10:24:24;12.85;;;3.40;;
77888;SDS011;67082;41.704;44.768;2023-08-20T10:27:08;7.32;;;3.20;;
77888;SDS011;67082;41.704;44.768;2023-08-20T10:29:40;5.57;;;2.70;;
77888;SDS011;67082;41.704;44.768;2023-08-20T10:32:10;5.72;;;2.63;;
77888;SDS011;67082;41.704;44.768;2023-08-20T10:34:42;7.10;;;2.42;;
77888;SDS011;67082;41.704;44.768;2023-08-20T10:37:14;7.53;;;3.08;;
77888;SDS011;67082;41.704;44.768;2023-08-20T10:39:50;7.38;;;3.13;;
77888;SDS011;67082;41.704;44.768;2023-08-20T10:42:25;7.93;;;2.88;;
77888;SDS011;67082;41.704;44.768;2023-08-20T10:48:03;6.47;;;3.08;;
77888;SDS011;67082;41.704;44.768;2023-08-20T10:50:25;9.43;;;3.00;;
77888;SDS011;67082;41.704;44.768;2023-08-20T10:52:57;5.13;;;2.47;;
77888;SDS011;67082;41.704;44.768;2023-08-20T10:55:25;6.22;;;2.83;;
77888;SDS011;67082;41.704;44.768;2023-08-20T10:57:56;6.43;;;2.63;;
77888;SDS011;67082;41.704;44.768;2023-08-20T11:00:25;8.38;;;2.60;;
77888;SDS011;67082;41.704;44.768;2023-08-20T11:03:02;9.75;;;2.70;;
77888;SDS011;67082;41.704;44.768;2023-08-20T11:05:30;8.75;;;3.22;;
77888;SDS011;67082;41.704;44.768;2023-08-20T11:08:00;6.75;;;3.03;;
77888;SDS011;67082;41.704;44.768;2023-08-20T11:10:30;6.97;;;3.00;;
77888;SDS011;67082;41.704;44.768;2023-08-20T11:12:59;7.70;;;2.75;;
77888;SDS011;67082;41.704;44.768;2023-08-20T11:15:30;5.25;;;2.70;;
77888;SDS011;67082;41.704;44.768;2023-08-20T11:17:59;5.55;;;2.92;;
77888;SDS011;67082;41.704;44.768;2023-08-20T11:20:27;7.47;;;2.90;;
77888;SDS011;67082;41.704;44.768;2023-08-20T11:22:55;7.45;;;2.85;;
77888;SDS011;67082;41.704;44.768;2023-08-20T11:25:23;7.10;;;2.75;;
77888;SDS011;67082;41.704;44.768;2023-08-20T11:27:51;7.45;;;2.95;;
77888;SDS011;67082;41.704;44.768;2023-08-20T11:30:19;9.82;;;3.03;;
77888;SDS011;67082;41.704;44.768;2023-08-20T11:32:48;5.28;;;2.92;;
77888;SDS011;67082;41.704;44.768;2023-08-20T11:35:20;12.10;;;3.38;;
77888;SDS011;67082;41.704;44.768;2023-08-20T11:37:51;6.40;;;2.35;;
77888;SDS011;67082;41.704;44.768;2023-08-20T11:40:20;11.15;;;2.83;;
77888;SDS011;67082;41.704;44.768;2023-08-20T11:42:49;7.50;;;3.05;;
77888;SDS011;67082;41.704;44.768;2023-08-20T11:45:17;5.32;;;2.80;;
77888;SDS011;67082;41.704;44.768;2023-08-20T11:47:46;8.05;;;3.10;;
77888;SDS011;67082;41.704;44.768;2023-08-20T11:50:14;4.65;;;2.40;;
77888;SDS011;67082;41.704;44.768;2023-08-20T11:52:42;7.63;;;3.03;;
77888;SDS011;67082;41.704;44.768;2023-08-20T11:55:10;5.97;;;2.50;;
77888;SDS011;67082;41.704;44.768;2023-08-20T11:57:39;4.47;;;2.50;;
77888;SDS011;67082;41.704;44.768;2023-08-20T12:00:07;8.70;;;2.78;;
77888;SDS011;67082;41.704;44.768;2023-08-20T12:02:43;5.25;;;2.58;;
77888;SDS011;67082;41.704;44.768;2023-08-20T12:05:11;9.27;;;2.80;;
77888;SDS011;67082;41.704;44.768;2023-08-20T12:07:40;6.95;;;2.42;;
77888;SDS011;67082;41.704;44.768;2023-08-20T12:10:20;4.05;;;2.22;;
77888;SDS011;67082;41.704;44.768;2023-08-20T12:12:49;10.60;;;2.60;;
77888;SDS011;67082;41.704;44.768;2023-08-20T12:15:18;5.53;;;2.63;;
77888;SDS011;67082;41.704;44.768;2023-08-20T12:18:02;8.75;;;2.28;;
77888;SDS011;67082;41.704;44.768;2023-08-20T12:20:34;8.48;;;2.25;;
77888;SDS011;67082;41.704;44.768;2023-08-20T12:23:04;6.20;;;2.42;;
77888;SDS011;67082;41.704;44.768;2023-08-20T12:25:35;4.05;;;2.30;;
77888;SDS011;67082;41.704;44.768;2023-08-20T12:28:04;4.60;;;2.55;;
77888;SDS011;67082;41.704;44.768;2023-08-20T12:30:33;4.70;;;2.30;;
77888;SDS011;67082;41.704;44.768;2023-08-20T12:33:06;5.07;;;2.03;;
77888;SDS011;67082;41.704;44.768;2023-08-20T12:35:34;3.20;;;2.33;;
77888;SDS011;67082;41.704;44.768;2023-08-20T12:38:03;8.10;;;2.30;;
77888;SDS011;67082;41.704;44.768;2023-08-20T12:40:31;7.22;;;2.25;;
77888;SDS011;67082;41.704;44.768;2023-08-20T12:43:00;7.82;;;2.70;;
77888;SDS011;67082;41.704;44.768;2023-08-20T12:45:28;4.10;;;2.30;;
77888;SDS011;67082;41.704;44.768;2023-08-20T12:47:57;6.32;;;2.35;;
77888;SDS011;67082;41.704;44.768;2023-08-20T12:50:28;5.65;;;2.47;;
77888;SDS011;67082;41.704;44.768;2023-08-20T12:52:57;6.72;;;2.30;;
77888;SDS011;67082;41.704;44.768;2023-08-20T12:55:24;7.80;;;2.40;;
77888;SDS011;67082;41.704;44.768;2023-08-20T12:57:57;7.97;;;2.28;;
77888;SDS011;67082;41.704;44.768;2023-08-20T13:00:26;4.85;;;2.20;;
77888;SDS011;67082;41.704;44.768;2023-08-20T13:02:54;8.68;;;2.17;;
77888;SDS011;67082;41.704;44.768;2023-08-20T13:05:23;4.88;;;2.33;;
77888;SDS011;67082;41.704;44.768;2023-08-20T13:07:53;5.65;;;2.35;;
77888;SDS011;67082;41.704;44.768;2023-08-20T13:10:22;8.38;;;2.42;;
77888;SDS011;67082;41.704;44.768;2023-08-20T13:12:54;5.55;;;2.30;;
77888;SDS011;67082;41.704;44.768;2023-08-20T13:15:25;6.32;;;2.83;;
77888;SDS011;67082;41.704;44.768;2023-08-20T13:17:54;7.45;;;2.35;;
77888;SDS011;67082;41.704;44.768;2023-08-20T13:20:22;7.28;;;2.47;;
77888;SDS011;67082;41.704;44.768;2023-08-20T13:22:52;6.72;;;2.80;;
77888;SDS011;67082;41.704;44.768;2023-08-20T13:25:20;3.80;;;2.22;;
77888;SDS011;67082;41.704;44.768;2023-08-20T13:27:49;8.23;;;2.65;;
77888;SDS011;67082;41.704;44.768;2023-08-20T13:30:17;4.40;;;2.20;;
77888;SDS011;67082;41.704;44.768;2023-08-20T13:32:47;4.88;;;2.38;;
77888;SDS011;67082;41.704;44.768;2023-08-20T13:35:15;8.43;;;2.50;;
77888;SDS011;67082;41.704;44.768;2023-08-20T13:37:44;9.45;;;2.30;;
77888;SDS011;67082;41.704;44.768;2023-08-20T13:40:12;5.72;;;2.25;;
77888;SDS011;67082;41.704;44.768;2023-08-20T13:42:41;10.77;;;6.95;;
77888;SDS011;67082;41.704;44.768;2023-08-20T13:45:09;5.05;;;2.42;;
77888;SDS011;67082;41.704;44.768;2023-08-20T13:47:37;4.18;;;2.22;;
77888;SDS011;67082;41.704;44.768;2023-08-20T13:50:05;5.68;;;2.53;;
77888;SDS011;67082;41.704;44.768;2023-08-20T13:52:33;10.52;;;2.70;;
77888;SDS011;67082;41.704;44.768;2023-08-20T13:55:03;8.75;;;2.42;;
77888;SDS011;67082;41.704;44.768;2023-08-20T13:57:31;7.38;;;2.22;;
77888;SDS011;67082;41.704;44.768;2023-08-20T13:59:59;4.60;;;2.33;;
77888;SDS011;67082;41.704;44.768;2023-08-20T14:02:30;6.60;;;2.25;;
77888;SDS011;67082;41.704;44.768;2023-08-20T14:04:59;8.80;;;2.25;;
77888;SDS011;67082;41.704;44.768;2023-08-20T14:07:38;5.45;;;2.10;;
77888;SDS011;67082;41.704;44.768;2023-08-20T14:10:07;6.13;;;2.00;;
77888;SDS011;67082;41.704;44.768;2023-08-20T14:12:36;4.25;;;1.83;;
77888;SDS011;67082;41.704;44.768;2023-08-20T14:15:07;4.97;;;2.00;;
77888;SDS011;67082;41.704;44.768;2023-08-20T14:17:37;3.72;;;1.85;;
77888;SDS011;67082;41.704;44.768;2023-08-20T14:20:05;5.65;;;1.70;;
77888;SDS011;67082;41.704;44.768;2023-08-20T14:22:35;6.43;;;2.33;;
77888;SDS011;67082;41.704;44.768;2023-08-20T14:25:05;5.75;;;1.80;;
77888;SDS011;67082;41.704;44.768;2023-08-20T14:27:34;5.40;;;2.00;;
77888;SDS011;67082;41.704;44.768;2023-08-20T14:30:02;4.68;;;2.00;;
77888;SDS011;67082;41.704;44.768;2023-08-20T14:32:31;5.45;;;1.83;;
77888;SDS011;67082;41.704;44.768;2023-08-20T14:34:59;3.97;;;1.80;;
77888;SDS011;67082;41.704;44.768;2023-08-20T14:37:29;4.38;;;1.90;;
77888;SDS011;67082;41.704;44.768;2023-08-20T14:39:59;5.95;;;2.15;;
77888;SDS011;67082;41.704;44.768;2023-08-20T14:42:28;3.92;;;2.10;;
77888;SDS011;67082;41.704;44.768;2023-08-20T14:44:56;5.78;;;1.70;;
77888;SDS011;67082;41.704;44.768;2023-08-20T14:47:24;9.43;;;1.92;;
77888;SDS011;67082;41.704;44.768;2023-08-20T14:49:52;4.22;;;1.90;;